sensor_id;sensor_type;location;lat;lon;timestamp;P1;durP1;ratioP1;P2;durP2;ratioP2
82938;SDS011;72714;52.744;4.900;2024-03-02T00:00:18;5.18;;;2.08;;
82938;SDS011;72714;52.744;4.900;2024-03-02T00:02:46;6.03;;;2.13;;
82938;SDS011;72714;52.744;4.900;2024-03-02T00:05:13;5.28;;;2.17;;
82938;SDS011;72714;52.744;4.900;2024-03-02T00:07:44;5.27;;;2.00;;
82938;SDS011;72714;52.744;4.900;2024-03-02T00:10:11;5.43;;;2.00;;
82938;SDS011;72714;52.744;4.900;2024-03-02T00:12:45;4.50;;;1.92;;
82938;SDS011;72714;52.744;4.900;2024-03-02T00:18:11;5.20;;;2.00;;
82938;SDS011;72714;52.744;4.900;2024-03-02T00:20:38;4.75;;;2.00;;
82938;SDS011;72714;52.744;4.900;2024-03-02T00:23:04;5.05;;;2.00;;
82938;SDS011;72714;52.744;4.900;2024-03-02T00:25:38;5.22;;;2.10;;
82938;SDS011;72714;52.744;4.900;2024-03-02T00:31:06;5.07;;;1.90;;
82938;SDS011;72714;52.744;4.900;2024-03-02T00:33:42;6.00;;;2.20;;
82938;SDS011;72714;52.744;4.900;2024-03-02T00:36:08;6.22;;;2.13;;
82938;SDS011;72714;52.744;4.900;2024-03-02T00:38:38;7.60;;;2.00;;
82938;SDS011;72714;52.744;4.900;2024-03-02T00:41:27;4.33;;;1.40;;
82938;SDS011;72714;52.744;4.900;2024-03-02T00:44:04;3.55;;;1.50;;
82938;SDS011;72714;52.744;4.900;2024-03-02T00:46:41;4.00;;;1.67;;
82938;SDS011;72714;52.744;4.900;2024-03-02T00:49:18;3.57;;;1.50;;
82938;SDS011;72714;52.744;4.900;2024-03-02T00:51:51;3.25;;;1.40;;
82938;SDS011;72714;52.744;4.900;2024-03-02T00:54:21;3.70;;;1.50;;
82938;SDS011;72714;52.744;4.900;2024-03-02T00:56:49;2.65;;;1.20;;
82938;SDS011;72714;52.744;4.900;2024-03-02T00:59:15;2.43;;;1.10;;
82938;SDS011;72714;52.744;4.900;2024-03-02T01:01:40;2.80;;;0.97;;
82938;SDS011;72714;52.744;4.900;2024-03-02T01:04:07;3.72;;;1.15;;
82938;SDS011;72714;52.744;4.900;2024-03-02T01:06:32;3.13;;;1.00;;
82938;SDS011;72714;52.744;4.900;2024-03-02T01:08:59;3.00;;;1.00;;
82938;SDS011;72714;52.744;4.900;2024-03-02T01:11:24;1.80;;;0.83;;
82938;SDS011;72714;52.744;4.900;2024-03-02T01:13:50;2.28;;;0.88;;
82938;SDS011;72714;52.744;4.900;2024-03-02T01:16:16;2.05;;;0.90;;
82938;SDS011;72714;52.744;4.900;2024-03-02T01:18:41;2.50;;;1.23;;
82938;SDS011;72714;52.744;4.900;2024-03-02T01:21:07;1.98;;;0.80;;
82938;SDS011;72714;52.744;4.900;2024-03-02T01:23:33;2.45;;;0.80;;
82938;SDS011;72714;52.744;4.900;2024-03-02T01:25:58;2.10;;;0.90;;
82938;SDS011;72714;52.744;4.900;2024-03-02T01:28:24;2.40;;;0.90;;
82938;SDS011;72714;52.744;4.900;2024-03-02T01:30:49;1.90;;;0.70;;
82938;SDS011;72714;52.744;4.900;2024-03-02T01:33:16;2.67;;;1.00;;
82938;SDS011;72714;52.744;4.900;2024-03-02T01:35:42;3.17;;;0.90;;
82938;SDS011;72714;52.744;4.900;2024-03-02T01:38:07;2.40;;;0.90;;
82938;SDS011;72714;52.744;4.900;2024-03-02T01:40:36;2.45;;;0.80;;
82938;SDS011;72714;52.744;4.900;2024-03-02T01:43:02;2.80;;;0.90;;
82938;SDS011;72714;52.744;4.900;2024-03-02T01:45:29;2.20;;;0.90;;
82938;SDS011;72714;52.744;4.900;2024-03-02T01:47:54;2.60;;;0.90;;
82938;SDS011;72714;52.744;4.900;2024-03-02T01:50:31;2.30;;;0.85;;
82938;SDS011;72714;52.744;4.900;2024-03-02T01:52:57;2.30;;;1.00;;
82938;SDS011;72714;52.744;4.900;2024-03-02T01:55:23;2.78;;;1.08;;
82938;SDS011;72714;52.744;4.900;2024-03-02T01:57:49;2.77;;;1.00;;
82938;SDS011;72714;52.744;4.900;2024-03-02T02:00:21;3.30;;;1.30;;
82938;SDS011;72714;52.744;4.900;2024-03-02T02:02:47;2.60;;;1.10;;
82938;SDS011;72714;52.744;4.900;2024-03-02T02:05:13;2.50;;;1.20;;
82938;SDS011;72714;52.744;4.900;2024-03-02T02:07:40;2.35;;;1.20;;
82938;SDS011;72714;52.744;4.900;2024-03-02T02:10:07;3.15;;;1.20;;
82938;SDS011;72714;52.744;4.900;2024-03-02T02:12:32;2.17;;;1.20;;
82938;SDS011;72714;52.744;4.900;2024-03-02T02:14:58;2.97;;;1.10;;
82938;SDS011;72714;52.744;4.900;2024-03-02T02:17:24;2.65;;;1.20;;
82938;SDS011;72714;52.744;4.900;2024-03-02T02:19:49;3.27;;;1.33;;
82938;SDS011;72714;52.744;4.900;2024-03-02T02:22:15;3.87;;;1.47;;
82938;SDS011;72714;52.744;4.900;2024-03-02T02:24:40;2.80;;;1.30;;
82938;SDS011;72714;52.744;4.900;2024-03-02T02:27:07;3.05;;;1.40;;
82938;SDS011;72714;52.744;4.900;2024-03-02T02:29:32;3.50;;;1.40;;
82938;SDS011;72714;52.744;4.900;2024-03-02T02:31:58;3.23;;;1.40;;
82938;SDS011;72714;52.744;4.900;2024-03-02T02:34:23;2.60;;;1.30;;
82938;SDS011;72714;52.744;4.900;2024-03-02T02:36:49;2.80;;;1.23;;
82938;SDS011;72714;52.744;4.900;2024-03-02T02:39:15;3.10;;;1.30;;
82938;SDS011;72714;52.744;4.900;2024-03-02T02:41:42;2.67;;;1.10;;
82938;SDS011;72714;52.744;4.900;2024-03-02T02:44:07;2.22;;;1.10;;
82938;SDS011;72714;52.744;4.900;2024-03-02T02:46:33;2.38;;;1.10;;
82938;SDS011;72714;52.744;4.900;2024-03-02T02:48:58;3.47;;;1.30;;
82938;SDS011;72714;52.744;4.900;2024-03-02T02:51:24;3.30;;;1.30;;
82938;SDS011;72714;52.744;4.900;2024-03-02T02:53:50;3.20;;;1.40;;
82938;SDS011;72714;52.744;4.900;2024-03-02T02:56:16;3.20;;;1.30;;
82938;SDS011;72714;52.744;4.900;2024-03-02T02:58:42;3.08;;;1.50;;
82938;SDS011;72714;52.744;4.900;2024-03-02T03:01:08;3.20;;;1.70;;
82938;SDS011;72714;52.744;4.900;2024-03-02T03:03:33;3.92;;;1.83;;
82938;SDS011;72714;52.744;4.900;2024-03-02T03:05:59;4.05;;;2.10;;
82938;SDS011;72714;52.744;4.900;2024-03-02T03:08:24;4.40;;;2.20;;
82938;SDS011;72714;52.744;4.900;2024-03-02T03:10:49;3.80;;;2.40;;
82938;SDS011;72714;52.744;4.900;2024-03-02T03:13:15;4.20;;;2.70;;
82938;SDS011;72714;52.744;4.900;2024-03-02T03:15:40;5.30;;;3.20;;
82938;SDS011;72714;52.744;4.900;2024-03-02T03:18:06;4.20;;;2.77;;
82938;SDS011;72714;52.744;4.900;2024-03-02T03:20:33;4.80;;;3.13;;
82938;SDS011;72714;52.744;4.900;2024-03-02T03:22:59;4.40;;;3.17;;
82938;SDS011;72714;52.744;4.900;2024-03-02T03:25:24;4.57;;;3.10;;
82938;SDS011;72714;52.744;4.900;2024-03-02T03:27:50;5.47;;;3.57;;
82938;SDS011;72714;52.744;4.900;2024-03-02T03:30:17;4.93;;;3.30;;
82938;SDS011;72714;52.744;4.900;2024-03-02T03:32:43;4.87;;;3.10;;
82938;SDS011;72714;52.744;4.900;2024-03-02T03:35:08;4.67;;;3.43;;
82938;SDS011;72714;52.744;4.900;2024-03-02T03:37:34;4.50;;;3.10;;
82938;SDS011;72714;52.744;4.900;2024-03-02T03:39:59;4.40;;;3.13;;
82938;SDS011;72714;52.744;4.900;2024-03-02T03:42:26;4.65;;;3.40;;
82938;SDS011;72714;52.744;4.900;2024-03-02T03:44:52;5.27;;;3.33;;
82938;SDS011;72714;52.744;4.900;2024-03-02T03:47:17;4.77;;;3.20;;
82938;SDS011;72714;52.744;4.900;2024-03-02T03:49:43;4.40;;;3.00;;
82938;SDS011;72714;52.744;4.900;2024-03-02T03:52:08;4.57;;;3.30;;
82938;SDS011;72714;52.744;4.900;2024-03-02T03:54:33;5.27;;;3.40;;
82938;SDS011;72714;52.744;4.900;2024-03-02T03:56:59;4.80;;;3.10;;
82938;SDS011;72714;52.744;4.900;2024-03-02T03:59:24;4.73;;;3.30;;
82938;SDS011;72714;52.744;4.900;2024-03-02T04:01:50;4.63;;;3.10;;
82938;SDS011;72714;52.744;4.900;2024-03-02T04:04:15;4.43;;;3.00;;
82938;SDS011;72714;52.744;4.900;2024-03-02T04:06:41;4.32;;;2.78;;
82938;SDS011;72714;52.744;4.900;2024-03-02T04:09:06;4.37;;;2.53;;
82938;SDS011;72714;52.744;4.900;2024-03-02T04:11:32;4.13;;;2.70;;
82938;SDS011;72714;52.744;4.900;2024-03-02T04:13:58;4.30;;;2.53;;
82938;SDS011;72714;52.744;4.900;2024-03-02T04:16:23;4.37;;;2.40;;
82938;SDS011;72714;52.744;4.900;2024-03-02T04:18:49;3.75;;;2.30;;
82938;SDS011;72714;52.744;4.900;2024-03-02T04:21:14;4.50;;;2.50;;
82938;SDS011;72714;52.744;4.900;2024-03-02T04:23:40;3.70;;;2.40;;
82938;SDS011;72714;52.744;4.900;2024-03-02T04:26:05;4.83;;;2.40;;
82938;SDS011;72714;52.744;4.900;2024-03-02T04:28:30;3.78;;;2.30;;
82938;SDS011;72714;52.744;4.900;2024-03-02T04:30:56;4.83;;;2.50;;
82938;SDS011;72714;52.744;4.900;2024-03-02T04:33:21;4.37;;;2.63;;
82938;SDS011;72714;52.744;4.900;2024-03-02T04:35:47;3.95;;;2.30;;
82938;SDS011;72714;52.744;4.900;2024-03-02T04:38:12;4.37;;;2.73;;
82938;SDS011;72714;52.744;4.900;2024-03-02T04:40:38;5.27;;;2.80;;
82938;SDS011;72714;52.744;4.900;2024-03-02T04:43:03;4.25;;;2.45;;
82938;SDS011;72714;52.744;4.900;2024-03-02T04:45:29;4.60;;;2.77;;
82938;SDS011;72714;52.744;4.900;2024-03-02T04:47:54;4.50;;;2.53;;
82938;SDS011;72714;52.744;4.900;2024-03-02T04:50:20;4.03;;;2.43;;
82938;SDS011;72714;52.744;4.900;2024-03-02T04:52:45;3.80;;;2.40;;
82938;SDS011;72714;52.744;4.900;2024-03-02T04:55:10;4.03;;;2.47;;
82938;SDS011;72714;52.744;4.900;2024-03-02T04:57:42;4.20;;;2.40;;
82938;SDS011;72714;52.744;4.900;2024-03-02T05:00:08;4.18;;;2.30;;
82938;SDS011;72714;52.744;4.900;2024-03-02T05:02:34;4.10;;;2.47;;
82938;SDS011;72714;52.744;4.900;2024-03-02T05:05:00;4.20;;;2.25;;
82938;SDS011;72714;52.744;4.900;2024-03-02T05:07:26;4.40;;;2.40;;
82938;SDS011;72714;52.744;4.900;2024-03-02T05:09:51;4.18;;;2.10;;
82938;SDS011;72714;52.744;4.900;2024-03-02T05:12:17;3.80;;;2.40;;
82938;SDS011;72714;52.744;4.900;2024-03-02T05:15:02;3.88;;;2.00;;
82938;SDS011;72714;52.744;4.900;2024-03-02T05:17:28;3.30;;;1.80;;
82938;SDS011;72714;52.744;4.900;2024-03-02T05:19:54;3.60;;;1.70;;
82938;SDS011;72714;52.744;4.900;2024-03-02T05:22:19;3.08;;;1.70;;
82938;SDS011;72714;52.744;4.900;2024-03-02T05:24:44;4.53;;;1.90;;
82938;SDS011;72714;52.744;4.900;2024-03-02T05:27:10;3.50;;;1.77;;
82938;SDS011;72714;52.744;4.900;2024-03-02T05:29:35;2.90;;;1.50;;
82938;SDS011;72714;52.744;4.900;2024-03-02T05:32:01;3.77;;;1.90;;
82938;SDS011;72714;52.744;4.900;2024-03-02T05:34:26;4.40;;;1.83;;
82938;SDS011;72714;52.744;4.900;2024-03-02T05:36:52;4.28;;;2.20;;
82938;SDS011;72714;52.744;4.900;2024-03-02T05:39:17;5.33;;;2.13;;
82938;SDS011;72714;52.744;4.900;2024-03-02T05:41:43;4.50;;;2.23;;
82938;SDS011;72714;52.744;4.900;2024-03-02T05:44:08;4.40;;;2.20;;
82938;SDS011;72714;52.744;4.900;2024-03-02T05:46:34;4.90;;;2.30;;
82938;SDS011;72714;52.744;4.900;2024-03-02T05:48:59;4.10;;;2.20;;
82938;SDS011;72714;52.744;4.900;2024-03-02T05:51:26;5.13;;;2.25;;
82938;SDS011;72714;52.744;4.900;2024-03-02T05:53:51;3.80;;;2.20;;
82938;SDS011;72714;52.744;4.900;2024-03-02T05:56:17;4.33;;;2.20;;
82938;SDS011;72714;52.744;4.900;2024-03-02T05:58:42;4.50;;;2.40;;
82938;SDS011;72714;52.744;4.900;2024-03-02T06:01:33;4.63;;;2.00;;
82938;SDS011;72714;52.744;4.900;2024-03-02T06:03:59;3.37;;;1.80;;
82938;SDS011;72714;52.744;4.900;2024-03-02T06:06:24;3.73;;;2.03;;
82938;SDS011;72714;52.744;4.900;2024-03-02T06:08:50;4.00;;;2.10;;
82938;SDS011;72714;52.744;4.900;2024-03-02T06:11:16;4.00;;;1.80;;
82938;SDS011;72714;52.744;4.900;2024-03-02T06:13:41;3.90;;;1.83;;
82938;SDS011;72714;52.744;4.900;2024-03-02T06:16:07;5.40;;;1.90;;
82938;SDS011;72714;52.744;4.900;2024-03-02T06:18:33;5.28;;;1.80;;
82938;SDS011;72714;52.744;4.900;2024-03-02T06:20:59;3.47;;;1.70;;
82938;SDS011;72714;52.744;4.900;2024-03-02T06:23:26;5.43;;;1.92;;
82938;SDS011;72714;52.744;4.900;2024-03-02T06:25:51;4.07;;;1.70;;
82938;SDS011;72714;52.744;4.900;2024-03-02T06:28:17;5.10;;;2.30;;
82938;SDS011;72714;52.744;4.900;2024-03-02T06:30:42;3.63;;;1.87;;
82938;SDS011;72714;52.744;4.900;2024-03-02T06:33:08;4.03;;;1.50;;
82938;SDS011;72714;52.744;4.900;2024-03-02T06:35:34;4.80;;;1.60;;
82938;SDS011;72714;52.744;4.900;2024-03-02T06:38:00;3.38;;;1.42;;
82938;SDS011;72714;52.744;4.900;2024-03-02T06:40:26;2.97;;;1.37;;
82938;SDS011;72714;52.744;4.900;2024-03-02T06:42:51;4.87;;;1.50;;
82938;SDS011;72714;52.744;4.900;2024-03-02T06:45:17;4.63;;;1.40;;
82938;SDS011;72714;52.744;4.900;2024-03-02T06:47:42;3.90;;;1.40;;
82938;SDS011;72714;52.744;4.900;2024-03-02T06:50:08;3.90;;;1.40;;
82938;SDS011;72714;52.744;4.900;2024-03-02T06:52:34;3.50;;;1.38;;
82938;SDS011;72714;52.744;4.900;2024-03-02T06:55:00;3.47;;;1.50;;
82938;SDS011;72714;52.744;4.900;2024-03-02T06:57:26;2.83;;;1.27;;
82938;SDS011;72714;52.744;4.900;2024-03-02T06:59:51;3.45;;;1.20;;
82938;SDS011;72714;52.744;4.900;2024-03-02T07:02:20;4.20;;;1.33;;
82938;SDS011;72714;52.744;4.900;2024-03-02T07:04:46;4.65;;;1.45;;
82938;SDS011;72714;52.744;4.900;2024-03-02T07:07:12;3.70;;;1.30;;
82938;SDS011;72714;52.744;4.900;2024-03-02T07:09:37;4.03;;;1.30;;
82938;SDS011;72714;52.744;4.900;2024-03-02T07:12:03;2.77;;;1.20;;
82938;SDS011;72714;52.744;4.900;2024-03-02T07:14:28;3.33;;;1.27;;
82938;SDS011;72714;52.744;4.900;2024-03-02T07:17:13;3.80;;;1.30;;
82938;SDS011;72714;52.744;4.900;2024-03-02T07:19:38;3.97;;;1.27;;
82938;SDS011;72714;52.744;4.900;2024-03-02T07:22:07;2.67;;;1.10;;
82938;SDS011;72714;52.744;4.900;2024-03-02T07:24:43;3.50;;;1.20;;
82938;SDS011;72714;52.744;4.900;2024-03-02T07:27:09;3.37;;;1.20;;
82938;SDS011;72714;52.744;4.900;2024-03-02T07:29:35;3.75;;;1.20;;
82938;SDS011;72714;52.744;4.900;2024-03-02T07:32:01;4.30;;;1.27;;
82938;SDS011;72714;52.744;4.900;2024-03-02T07:34:26;4.20;;;1.50;;
82938;SDS011;72714;52.744;4.900;2024-03-02T07:36:52;4.53;;;1.20;;
82938;SDS011;72714;52.744;4.900;2024-03-02T07:39:17;3.50;;;1.20;;
82938;SDS011;72714;52.744;4.900;2024-03-02T07:41:44;3.87;;;1.30;;
82938;SDS011;72714;52.744;4.900;2024-03-02T07:44:10;3.95;;;1.30;;
82938;SDS011;72714;52.744;4.900;2024-03-02T07:46:40;3.33;;;1.10;;
82938;SDS011;72714;52.744;4.900;2024-03-02T07:49:09;4.57;;;1.40;;
82938;SDS011;72714;52.744;4.900;2024-03-02T07:51:34;4.87;;;1.40;;
82938;SDS011;72714;52.744;4.900;2024-03-02T07:54:00;4.80;;;1.20;;
82938;SDS011;72714;52.744;4.900;2024-03-02T07:56:26;3.47;;;1.10;;
82938;SDS011;72714;52.744;4.900;2024-03-02T07:58:51;5.22;;;1.20;;
82938;SDS011;72714;52.744;4.900;2024-03-02T08:01:17;4.60;;;1.20;;
82938;SDS011;72714;52.744;4.900;2024-03-02T08:03:43;4.47;;;1.10;;
82938;SDS011;72714;52.744;4.900;2024-03-02T08:06:13;3.53;;;1.20;;
82938;SDS011;72714;52.744;4.900;2024-03-02T08:08:40;4.75;;;1.48;;
82938;SDS011;72714;52.744;4.900;2024-03-02T08:11:06;3.65;;;1.20;;
82938;SDS011;72714;52.744;4.900;2024-03-02T08:13:31;3.95;;;1.10;;
82938;SDS011;72714;52.744;4.900;2024-03-02T08:15:57;4.57;;;1.30;;
82938;SDS011;72714;52.744;4.900;2024-03-02T08:18:22;6.40;;;1.47;;
82938;SDS011;72714;52.744;4.900;2024-03-02T08:20:48;4.30;;;1.30;;
82938;SDS011;72714;52.744;4.900;2024-03-02T08:23:14;3.70;;;1.30;;
82938;SDS011;72714;52.744;4.900;2024-03-02T08:25:39;6.03;;;1.53;;
82938;SDS011;72714;52.744;4.900;2024-03-02T08:28:05;3.92;;;1.20;;
82938;SDS011;72714;52.744;4.900;2024-03-02T08:30:30;4.70;;;1.27;;
82938;SDS011;72714;52.744;4.900;2024-03-02T08:32:56;3.47;;;1.30;;
82938;SDS011;72714;52.744;4.900;2024-03-02T08:35:21;3.90;;;1.20;;
82938;SDS011;72714;52.744;4.900;2024-03-02T08:37:47;4.05;;;1.17;;
82938;SDS011;72714;52.744;4.900;2024-03-02T08:40:13;4.07;;;1.10;;
82938;SDS011;72714;52.744;4.900;2024-03-02T08:42:39;5.20;;;1.30;;
82938;SDS011;72714;52.744;4.900;2024-03-02T08:45:04;4.37;;;1.30;;
82938;SDS011;72714;52.744;4.900;2024-03-02T08:47:31;4.95;;;1.30;;
82938;SDS011;72714;52.744;4.900;2024-03-02T08:49:56;4.97;;;1.30;;
82938;SDS011;72714;52.744;4.900;2024-03-02T08:52:22;5.30;;;1.50;;
82938;SDS011;72714;52.744;4.900;2024-03-02T08:54:47;5.00;;;1.20;;
82938;SDS011;72714;52.744;4.900;2024-03-02T08:57:12;3.37;;;1.10;;
82938;SDS011;72714;52.744;4.900;2024-03-02T08:59:38;5.13;;;1.30;;
82938;SDS011;72714;52.744;4.900;2024-03-02T09:02:04;4.57;;;1.17;;
82938;SDS011;72714;52.744;4.900;2024-03-02T09:04:29;5.07;;;1.20;;
82938;SDS011;72714;52.744;4.900;2024-03-02T09:06:55;4.10;;;1.20;;
82938;SDS011;72714;52.744;4.900;2024-03-02T09:09:20;7.50;;;1.52;;
82938;SDS011;72714;52.744;4.900;2024-03-02T09:11:46;5.38;;;1.40;;
82938;SDS011;72714;52.744;4.900;2024-03-02T09:14:12;6.80;;;1.30;;
82938;SDS011;72714;52.744;4.900;2024-03-02T09:16:37;6.13;;;1.30;;
82938;SDS011;72714;52.744;4.900;2024-03-02T09:19:03;4.93;;;1.30;;
82938;SDS011;72714;52.744;4.900;2024-03-02T09:21:28;5.10;;;1.27;;
82938;SDS011;72714;52.744;4.900;2024-03-02T09:23:55;5.70;;;1.70;;
82938;SDS011;72714;52.744;4.900;2024-03-02T09:26:21;4.80;;;1.20;;
82938;SDS011;72714;52.744;4.900;2024-03-02T09:28:47;6.75;;;1.52;;
82938;SDS011;72714;52.744;4.900;2024-03-02T09:31:13;5.17;;;1.40;;
82938;SDS011;72714;52.744;4.900;2024-03-02T09:33:38;6.05;;;1.30;;
82938;SDS011;72714;52.744;4.900;2024-03-02T09:36:16;5.55;;;1.50;;
82938;SDS011;72714;52.744;4.900;2024-03-02T09:38:42;4.75;;;1.30;;
82938;SDS011;72714;52.744;4.900;2024-03-02T09:41:07;5.40;;;1.35;;
82938;SDS011;72714;52.744;4.900;2024-03-02T09:43:33;5.23;;;1.30;;
82938;SDS011;72714;52.744;4.900;2024-03-02T09:45:58;5.83;;;1.50;;
82938;SDS011;72714;52.744;4.900;2024-03-02T09:48:24;5.83;;;1.40;;
82938;SDS011;72714;52.744;4.900;2024-03-02T09:50:50;5.57;;;1.40;;
82938;SDS011;72714;52.744;4.900;2024-03-02T09:53:15;7.38;;;1.40;;
82938;SDS011;72714;52.744;4.900;2024-03-02T09:55:45;5.90;;;1.40;;
82938;SDS011;72714;52.744;4.900;2024-03-02T09:58:11;5.30;;;1.33;;
82938;SDS011;72714;52.744;4.900;2024-03-02T10:00:37;6.07;;;1.40;;
82938;SDS011;72714;52.744;4.900;2024-03-02T10:03:03;5.82;;;1.40;;
82938;SDS011;72714;52.744;4.900;2024-03-02T10:05:30;6.68;;;1.30;;
82938;SDS011;72714;52.744;4.900;2024-03-02T10:07:59;5.20;;;1.20;;
82938;SDS011;72714;52.744;4.900;2024-03-02T10:10:34;6.28;;;1.40;;
82938;SDS011;72714;52.744;4.900;2024-03-02T10:13:04;6.20;;;1.45;;
82938;SDS011;72714;52.744;4.900;2024-03-02T10:15:33;5.43;;;1.35;;
82938;SDS011;72714;52.744;4.900;2024-03-02T10:17:59;4.95;;;1.20;;
82938;SDS011;72714;52.744;4.900;2024-03-02T10:20:24;6.60;;;1.63;;
82938;SDS011;72714;52.744;4.900;2024-03-02T10:22:50;5.10;;;1.30;;
82938;SDS011;72714;52.744;4.900;2024-03-02T10:25:32;5.55;;;1.50;;
82938;SDS011;72714;52.744;4.900;2024-03-02T10:27:58;6.10;;;1.38;;
82938;SDS011;72714;52.744;4.900;2024-03-02T10:30:30;6.47;;;1.60;;
82938;SDS011;72714;52.744;4.900;2024-03-02T10:32:55;4.47;;;1.33;;
82938;SDS011;72714;52.744;4.900;2024-03-02T10:35:24;4.75;;;1.40;;
82938;SDS011;72714;52.744;4.900;2024-03-02T10:37:51;5.93;;;1.55;;
82938;SDS011;72714;52.744;4.900;2024-03-02T10:40:17;7.15;;;1.48;;
82938;SDS011;72714;52.744;4.900;2024-03-02T10:42:43;4.65;;;1.27;;
82938;SDS011;72714;52.744;4.900;2024-03-02T10:45:10;6.10;;;1.50;;
82938;SDS011;72714;52.744;4.900;2024-03-02T10:47:36;6.13;;;1.40;;
82938;SDS011;72714;52.744;4.900;2024-03-02T10:50:04;6.85;;;1.40;;
82938;SDS011;72714;52.744;4.900;2024-03-02T10:52:36;5.55;;;1.30;;
82938;SDS011;72714;52.744;4.900;2024-03-02T10:55:02;5.53;;;1.50;;
82938;SDS011;72714;52.744;4.900;2024-03-02T11:00:23;5.00;;;1.23;;
82938;SDS011;72714;52.744;4.900;2024-03-02T11:02:55;5.40;;;1.30;;
82938;SDS011;72714;52.744;4.900;2024-03-02T11:05:43;7.68;;;1.40;;
82938;SDS011;72714;52.744;4.900;2024-03-02T11:08:12;6.25;;;1.45;;
82938;SDS011;72714;52.744;4.900;2024-03-02T11:10:45;6.70;;;1.30;;
82938;SDS011;72714;52.744;4.900;2024-03-02T11:13:13;5.00;;;1.40;;
82938;SDS011;72714;52.744;4.900;2024-03-02T11:15:45;5.67;;;1.30;;
82938;SDS011;72714;52.744;4.900;2024-03-02T11:18:11;6.10;;;1.30;;
82938;SDS011;72714;52.744;4.900;2024-03-02T11:20:37;4.63;;;1.17;;
82938;SDS011;72714;52.744;4.900;2024-03-02T11:23:07;6.25;;;1.30;;
82938;SDS011;72714;52.744;4.900;2024-03-02T11:25:34;6.05;;;1.40;;
82938;SDS011;72714;52.744;4.900;2024-03-02T11:28:00;5.57;;;1.30;;
82938;SDS011;72714;52.744;4.900;2024-03-02T11:35:45;5.72;;;1.35;;
82938;SDS011;72714;52.744;4.900;2024-03-02T11:38:11;5.82;;;1.25;;
82938;SDS011;72714;52.744;4.900;2024-03-02T11:40:38;6.73;;;1.53;;
82938;SDS011;72714;52.744;4.900;2024-03-02T11:43:04;6.37;;;1.30;;
82938;SDS011;72714;52.744;4.900;2024-03-02T11:45:30;5.07;;;1.30;;
82938;SDS011;72714;52.744;4.900;2024-03-02T11:47:59;5.55;;;1.50;;
82938;SDS011;72714;52.744;4.900;2024-03-02T11:50:35;5.32;;;1.20;;
82938;SDS011;72714;52.744;4.900;2024-03-02T11:53:06;7.13;;;1.48;;
82938;SDS011;72714;52.744;4.900;2024-03-02T11:55:34;4.97;;;1.13;;
82938;SDS011;72714;52.744;4.900;2024-03-02T11:58:01;4.10;;;1.20;;
82938;SDS011;72714;52.744;4.900;2024-03-02T12:00:27;5.68;;;1.25;;
82938;SDS011;72714;52.744;4.900;2024-03-02T12:03:00;6.60;;;1.30;;
82938;SDS011;72714;52.744;4.900;2024-03-02T12:05:27;6.72;;;1.45;;
82938;SDS011;72714;52.744;4.900;2024-03-02T12:07:59;5.70;;;1.30;;
82938;SDS011;72714;52.744;4.900;2024-03-02T12:10:26;5.13;;;1.38;;
82938;SDS011;72714;52.744;4.900;2024-03-02T12:12:58;5.47;;;1.30;;
82938;SDS011;72714;52.744;4.900;2024-03-02T12:15:29;5.55;;;1.30;;
82938;SDS011;72714;52.744;4.900;2024-03-02T12:18:00;5.63;;;1.30;;
82938;SDS011;72714;52.744;4.900;2024-03-02T12:20:27;5.53;;;1.40;;
82938;SDS011;72714;52.744;4.900;2024-03-02T12:22:56;5.85;;;1.30;;
82938;SDS011;72714;52.744;4.900;2024-03-02T12:25:24;5.33;;;1.23;;
82938;SDS011;72714;52.744;4.900;2024-03-02T12:27:50;5.75;;;1.42;;
82938;SDS011;72714;52.744;4.900;2024-03-02T12:30:17;4.60;;;1.33;;
82938;SDS011;72714;52.744;4.900;2024-03-02T12:32:46;4.68;;;1.33;;
82938;SDS011;72714;52.744;4.900;2024-03-02T12:35:12;6.22;;;1.50;;
82938;SDS011;72714;52.744;4.900;2024-03-02T12:37:48;5.22;;;1.40;;
82938;SDS011;72714;52.744;4.900;2024-03-02T12:40:15;5.65;;;1.23;;
82938;SDS011;72714;52.744;4.900;2024-03-02T12:42:43;5.63;;;1.48;;
82938;SDS011;72714;52.744;4.900;2024-03-02T12:45:09;5.68;;;1.30;;
82938;SDS011;72714;52.744;4.900;2024-03-02T12:47:35;4.83;;;1.20;;
82938;SDS011;72714;52.744;4.900;2024-03-02T12:50:01;4.03;;;1.20;;
82938;SDS011;72714;52.744;4.900;2024-03-02T12:52:26;5.47;;;1.35;;
82938;SDS011;72714;52.744;4.900;2024-03-02T12:54:52;4.97;;;1.27;;
82938;SDS011;72714;52.744;4.900;2024-03-02T12:57:24;5.32;;;1.15;;
82938;SDS011;72714;52.744;4.900;2024-03-02T12:59:51;5.05;;;1.20;;
82938;SDS011;72714;52.744;4.900;2024-03-02T13:02:17;4.40;;;1.25;;
82938;SDS011;72714;52.744;4.900;2024-03-02T13:04:43;5.03;;;1.40;;
82938;SDS011;72714;52.744;4.900;2024-03-02T13:07:09;6.00;;;1.20;;
82938;SDS011;72714;52.744;4.900;2024-03-02T13:09:35;5.63;;;1.30;;
82938;SDS011;72714;52.744;4.900;2024-03-02T13:12:01;4.90;;;1.20;;
82938;SDS011;72714;52.744;4.900;2024-03-02T13:14:32;3.92;;;0.98;;
82938;SDS011;72714;52.744;4.900;2024-03-02T13:16:58;5.05;;;1.20;;
82938;SDS011;72714;52.744;4.900;2024-03-02T13:19:25;6.03;;;1.33;;
82938;SDS011;72714;52.744;4.900;2024-03-02T13:21:50;5.93;;;1.30;;
82938;SDS011;72714;52.744;4.900;2024-03-02T13:24:23;4.60;;;1.00;;
82938;SDS011;72714;52.744;4.900;2024-03-02T13:26:51;5.90;;;1.23;;
82938;SDS011;72714;52.744;4.900;2024-03-02T13:29:20;4.60;;;1.30;;
82938;SDS011;72714;52.744;4.900;2024-03-02T13:31:46;3.75;;;1.10;;
82938;SDS011;72714;52.744;4.900;2024-03-02T13:34:12;5.13;;;1.23;;
82938;SDS011;72714;52.744;4.900;2024-03-02T13:36:37;5.00;;;1.23;;
82938;SDS011;72714;52.744;4.900;2024-03-02T13:39:04;5.82;;;1.25;;
82938;SDS011;72714;52.744;4.900;2024-03-02T13:41:33;4.57;;;1.20;;
82938;SDS011;72714;52.744;4.900;2024-03-02T13:43:59;4.57;;;1.20;;
82938;SDS011;72714;52.744;4.900;2024-03-02T13:46:26;5.32;;;1.20;;
82938;SDS011;72714;52.744;4.900;2024-03-02T13:48:52;4.63;;;1.10;;
82938;SDS011;72714;52.744;4.900;2024-03-02T13:51:17;3.87;;;1.10;;
82938;SDS011;72714;52.744;4.900;2024-03-02T13:53:43;4.67;;;1.20;;
82938;SDS011;72714;52.744;4.900;2024-03-02T13:56:08;5.13;;;1.40;;
82938;SDS011;72714;52.744;4.900;2024-03-02T13:58:34;3.83;;;1.02;;
82938;SDS011;72714;52.744;4.900;2024-03-02T14:00:59;4.17;;;1.20;;
82938;SDS011;72714;52.744;4.900;2024-03-02T14:03:26;4.47;;;1.27;;
82938;SDS011;72714;52.744;4.900;2024-03-02T14:05:52;4.47;;;1.10;;
82938;SDS011;72714;52.744;4.900;2024-03-02T14:08:18;6.15;;;1.20;;
82938;SDS011;72714;52.744;4.900;2024-03-02T14:10:44;4.82;;;1.20;;
82938;SDS011;72714;52.744;4.900;2024-03-02T14:13:09;4.30;;;1.10;;
82938;SDS011;72714;52.744;4.900;2024-03-02T14:15:35;4.87;;;1.30;;
82938;SDS011;72714;52.744;4.900;2024-03-02T14:18:04;3.92;;;1.10;;
82938;SDS011;72714;52.744;4.900;2024-03-02T14:20:30;3.45;;;1.00;;
82938;SDS011;72714;52.744;4.900;2024-03-02T14:22:55;5.30;;;1.15;;
82938;SDS011;72714;52.744;4.900;2024-03-02T14:25:21;5.73;;;1.30;;
82938;SDS011;72714;52.744;4.900;2024-03-02T14:27:46;4.53;;;1.17;;
82938;SDS011;72714;52.744;4.900;2024-03-02T14:30:12;5.18;;;1.23;;
82938;SDS011;72714;52.744;4.900;2024-03-02T14:32:38;3.88;;;1.05;;
82938;SDS011;72714;52.744;4.900;2024-03-02T14:35:05;4.67;;;1.23;;
82938;SDS011;72714;52.744;4.900;2024-03-02T14:37:31;5.17;;;1.30;;
82938;SDS011;72714;52.744;4.900;2024-03-02T14:39:56;5.77;;;1.50;;
82938;SDS011;72714;52.744;4.900;2024-03-02T14:42:22;5.47;;;1.50;;
82938;SDS011;72714;52.744;4.900;2024-03-02T14:44:47;4.55;;;1.20;;
82938;SDS011;72714;52.744;4.900;2024-03-02T14:47:13;4.53;;;1.30;;
82938;SDS011;72714;52.744;4.900;2024-03-02T14:49:38;4.23;;;1.17;;
82938;SDS011;72714;52.744;4.900;2024-03-02T14:52:05;4.53;;;1.35;;
82938;SDS011;72714;52.744;4.900;2024-03-02T14:54:31;4.23;;;1.30;;
82938;SDS011;72714;52.744;4.900;2024-03-02T14:56:56;4.13;;;1.20;;
82938;SDS011;72714;52.744;4.900;2024-03-02T14:59:22;6.10;;;1.60;;